Warner Springs, CA (92086)

10:35 PM PDT on July 05, 2015 (GMT -0700)
MesoWest | | Change Station
CLOSE
Current Station
Personal Weather Station
Location: Warner Springs, CA
Elevation: 2970 ft
Nearby Weather Stations

Elev 2970 ft 33.32 °N, 116.68 °W | Updated 18 minutes ago

Clear
Clear
66 °F
Feels Like 66 °F
N
2
Wind Variable Wind from WNW
Gusts 2.0 mph

Today
High -- | Low -- °F
--% Chance of Precip.
Yesterday
High -- | Low -- °F
Precip. -- in
5:42 AM 7:59 PM
Waning Gibbous, 79% visible
Pressure 30.03 in
Visibility 10.0 miles
Clouds Overcast 1100 ft
Dew Point 56 °F
Humidity 70%
Rainfall in
Snow Depth Not available.
UV 0 out of 12
Pollen 4.20 out of 12
Air Quality Not available.
Flu Activity Not available.
SPECI KRNM 060523Z AUTO 30004KT 10SM OVC011 17/14 A3003 RMK AO2 T01720144 $

More Conditions Fewer Conditions

Pressure 30.03 in
Visibility 10.0 miles
Clouds Overcast 1100 ft
Dew Point 56 °F
Humidity 70%
Rainfall in
Snow Depth Not available.
UV 0 out of 12
Pollen 4.20 out of 12
Air Quality Not available.
Flu Activity Not available.
SPECI KRNM 060523Z AUTO 30004KT 10SM OVC011 17/14 A3003 RMK AO2 T01720144 $

More Conditions Fewer Conditions

10-Day Weather Forecast

×

Almanac

Astronomy

Jul. 05, 2015 Rise Set
Actual Time
Civil Twilight
Nautical Twilight
Astronomical Twilight
Moon
Length of Visible Light
Length of Day
Tomorrow will be .
, % of the Moon is Illuminated

Today's Extremes

State Highs State Lows

Community

WunderPhotos

Upload Photos

1,835,489 photos uploaded!

WunderBlogs® & News

Nearby

Air Quality

  Air Quality AQ Index Pollutant
Not available.

Snow Depth

Station Depth Elevation

Earthquake Activity

City Distance Mag. Time & Date
Minimum magnitude displayed is 2.5.

Coastal Water Temperatures

Place Temperature

Stations

Nearby Weather Stations

Station Location Temp. Windchill Dew Point Humidity Wind Precip. Elev Updated Type